Purdy Station, New York
Current Conditions -  °F | °C
As of 6:53 PM on Thursday 18 Dec 2014 (Local Time) from KDXR Reporting Station
Scattered Clouds Scattered Clouds  
Wind Chill: 29°   Ceiling: Unl
Heat Index: 35°   Visibility: 10mi
Dew Point: 23°   Wind: 7mph
Humidity: 61%   Direction: 290°WNW
Pressure: 29.94"   Gusts: NA
Location:  41.3178°N, 73.6377°W
Report Text: KDXR 182353Z 29006KT 10SM SCT036 02/M05 A2994 RMK AO2 SLP140 T00171050 10056 20017 51005
Loading
Personal Weather Stations






























Interactive Weather Map New forecast layout! Learn more

10-Day Weather Forecast

Advertisements
Track Severe Weather on mobile